createdAt,value
2023-01-25T00:01:15.022Z,102061.34
2023-01-25T00:04:17.531Z,102065.22
2023-01-25T00:07:20.234Z,102064.00
2023-01-25T00:10:22.926Z,102069.66
2023-01-25T00:13:25.908Z,102064.22
2023-01-25T00:16:28.648Z,102073.47
2023-01-25T00:19:31.597Z,102070.88
2023-01-25T00:22:34.522Z,102070.25
2023-01-25T00:25:37.335Z,102069.03
2023-01-25T00:28:40.208Z,102074.50
2023-01-25T00:32:02.672Z,102083.97
2023-01-25T00:35:12.568Z,102084.78
2023-01-25T00:38:29.860Z,102080.53
2023-01-25T00:41:32.957Z,102086.78
2023-01-25T00:44:36.000Z,102091.03
2023-01-25T00:47:38.971Z,102092.66
2023-01-25T00:50:42.745Z,102097.28
2023-01-25T00:53:45.559Z,102102.69
2023-01-25T00:56:48.321Z,102095.66
2023-01-25T00:59:50.959Z,102102.31
2023-01-25T01:02:53.938Z,102100.50
2023-01-25T01:06:06.036Z,102091.19
2023-01-25T01:09:14.035Z,102089.78
2023-01-25T01:12:16.489Z,102093.41
2023-01-25T01:15:19.292Z,102097.41
2023-01-25T01:18:22.434Z,102092.00
2023-01-25T01:21:25.353Z,102086.75
2023-01-25T01:24:28.450Z,102089.78
2023-01-25T01:27:31.340Z,102079.88
2023-01-25T01:30:34.257Z,102072.59
2023-01-25T01:33:37.451Z,102069.97
2023-01-25T01:36:39.856Z,102083.50
2023-01-25T01:39:42.569Z,102078.22
2023-01-25T01:42:59.259Z,102066.94
2023-01-25T01:46:22.771Z,102075.63
2023-01-25T01:49:29.317Z,102069.56
2023-01-25T01:52:38.903Z,102073.34
2023-01-25T01:55:43.191Z,102072.72
2023-01-25T01:58:47.372Z,102075.38
2023-01-25T02:01:50.207Z,102077.19
2023-01-25T02:04:55.490Z,102077.81
2023-01-25T02:07:59.036Z,102081.00
2023-01-25T02:11:04.079Z,102070.94
2023-01-25T02:14:07.150Z,102070.56
2023-01-25T02:17:11.761Z,102074.19
2023-01-25T02:20:26.726Z,102071.97
2023-01-25T02:23:37.677Z,102068.34
2023-01-25T02:26:41.028Z,102065.53
2023-01-25T02:29:45.809Z,102061.69
2023-01-25T02:32:48.604Z,102061.50
2023-01-25T02:35:58.440Z,102058.06
2023-01-25T02:39:03.956Z,102050.78
2023-01-25T02:42:06.897Z,102065.50
2023-01-25T02:45:14.508Z,102058.41
2023-01-25T02:48:17.255Z,102058.63
2023-01-25T02:51:22.151Z,102060.44
2023-01-25T02:54:28.740Z,102057.47
2023-01-25T02:57:32.165Z,102057.47
2023-01-25T03:00:36.729Z,102064.91
2023-01-25T03:03:40.488Z,102054.19
2023-01-25T03:06:43.786Z,102047.56
2023-01-25T03:09:46.984Z,102047.56
2023-01-25T03:12:49.818Z,102044.50
2023-01-25T03:15:53.415Z,102044.31
2023-01-25T03:18:56.583Z,102039.91
2023-01-25T03:22:00.365Z,102034.88
2023-01-25T03:25:03.830Z,102025.03
2023-01-25T03:28:06.676Z,102038.16
2023-01-25T03:31:12.243Z,102037.34
2023-01-25T03:34:15.075Z,102037.72
2023-01-25T03:37:19.495Z,102043.00
2023-01-25T03:40:26.591Z,102037.34
2023-01-25T03:43:29.832Z,102033.09
2023-01-25T03:46:32.893Z,102040.31
2023-01-25T03:49:35.872Z,102046.56
2023-01-25T03:52:57.442Z,102041.94
2023-01-25T03:56:10.941Z,102032.22
2023-01-25T03:59:16.520Z,102030.78
2023-01-25T04:02:20.574Z,102032.97
2023-01-25T04:05:23.460Z,102031.31
2023-01-25T04:08:27.099Z,102034.56
2023-01-25T04:11:29.701Z,102040.75
2023-01-25T04:14:43.902Z,102028.66
2023-01-25T04:17:51.524Z,102025.94
2023-01-25T04:21:01.737Z,102018.06
2023-01-25T04:24:04.873Z,102023.53
2023-01-25T04:27:12.108Z,102018.88
2023-01-25T04:30:22.612Z,102012.41
2023-01-25T04:33:26.705Z,102016.22
2023-01-25T04:36:29.371Z,102020.84
2023-01-25T04:39:32.170Z,102023.84
2023-01-25T04:42:34.746Z,102023.06
2023-01-25T04:45:37.595Z,102018.81
2023-01-25T04:48:45.981Z,102029.91
2023-01-25T04:51:49.380Z,102036.19
2023-01-25T04:54:51.984Z,102035.31
2023-01-25T04:57:54.831Z,102033.53
2023-01-25T05:01:04.276Z,102028.47
2023-01-25T05:04:08.154Z,102026.06
2023-01-25T05:07:15.140Z,102020.19
2023-01-25T05:10:18.614Z,102020.56
2023-01-25T05:13:40.948Z,102012.53
2023-01-25T05:16:50.280Z,102013.75
2023-01-25T05:19:52.917Z,102014.00
2023-01-25T05:22:58.594Z,102016.03
2023-01-25T05:26:19.625Z,102020.13
2023-01-25T05:29:22.648Z,102018.94
2023-01-25T05:32:32.960Z,102019.78
2023-01-25T05:35:36.376Z,102024.00
2023-01-25T05:38:39.421Z,102023.03
2023-01-25T05:41:44.484Z,102022.63
2023-01-25T05:44:47.886Z,102026.88
2023-01-25T05:47:55.524Z,102026.25
2023-01-25T05:50:58.830Z,102040.97
2023-01-25T05:54:02.549Z,102036.75
2023-01-25T05:57:05.214Z,102044.19
2023-01-25T06:00:11.323Z,102039.94
2023-01-25T06:03:17.643Z,102041.16
2023-01-25T06:06:21.407Z,102048.19
2023-01-25T06:09:24.189Z,102045.38
2023-01-25T06:12:29.379Z,102045.78
2023-01-25T06:15:32.967Z,102052.88
2023-01-25T06:18:58.441Z,102058.69
2023-01-25T06:22:17.185Z,102050.47
2023-01-25T06:25:19.719Z,102053.06
2023-01-25T06:28:22.280Z,102059.09
2023-01-25T06:31:24.991Z,102060.13
2023-01-25T06:34:27.803Z,102065.16
2023-01-25T06:37:30.482Z,102064.38
2023-01-25T06:40:34.114Z,102067.19
2023-01-25T06:43:37.646Z,102057.91
2023-01-25T06:46:40.721Z,102070.63
2023-01-25T06:49:43.658Z,102070.22
2023-01-25T06:52:52.336Z,102070.06
2023-01-25T06:56:22.127Z,102065.78
2023-01-25T06:59:24.710Z,102067.72
2023-01-25T07:02:27.376Z,102071.28
2023-01-25T07:05:30.103Z,102067.78
2023-01-25T07:08:34.569Z,102068.44
2023-01-25T07:11:37.436Z,102073.50
2023-01-25T07:14:40.768Z,102068.84
2023-01-25T07:17:43.340Z,102062.41
2023-01-25T07:20:46.339Z,102065.94
2023-01-25T07:23:52.824Z,102061.25
2023-01-25T07:26:55.360Z,102064.78
2023-01-25T07:29:58.237Z,102068.00
2023-01-25T07:33:00.866Z,102073.88
2023-01-25T07:36:06.824Z,102072.50
2023-01-25T07:39:13.546Z,102081.09
2023-01-25T07:42:16.427Z,102076.34
2023-01-25T07:45:30.560Z,102071.84
2023-01-25T07:48:33.502Z,102067.94
2023-01-25T07:51:36.486Z,102062.84
2023-01-25T07:54:39.159Z,102062.66
2023-01-25T07:57:41.647Z,102068.63
2023-01-25T08:00:45.106Z,102066.69
2023-01-25T08:03:48.204Z,102072.09
2023-01-25T08:06:50.838Z,102065.59
2023-01-25T08:09:53.635Z,102068.59
2023-01-25T08:12:56.527Z,102062.19
2023-01-25T08:15:58.949Z,102060.56
2023-01-25T08:19:03.385Z,102066.69
2023-01-25T08:22:08.376Z,102057.69
2023-01-25T08:25:11.374Z,102066.78
2023-01-25T08:28:14.051Z,102060.16
2023-01-25T08:31:20.200Z,102058.78
2023-01-25T08:34:22.760Z,102063.09
2023-01-25T08:37:29.639Z,102068.22
2023-01-25T08:40:32.205Z,102057.19
2023-01-25T08:43:35.703Z,102062.25
2023-01-25T08:46:38.526Z,102055.56
2023-01-25T08:49:41.227Z,102051.00
2023-01-25T08:52:43.944Z,102048.34
2023-01-25T08:55:46.997Z,102048.84
2023-01-25T08:58:50.487Z,102043.44
2023-01-25T09:01:53.791Z,102050.16
2023-01-25T09:04:56.382Z,102046.44
2023-01-25T09:07:59.452Z,102051.34
2023-01-25T09:11:06.761Z,102046.00
2023-01-25T09:14:09.446Z,102045.59
2023-01-25T09:17:12.037Z,102040.72
2023-01-25T09:20:16.209Z,102056.13
2023-01-25T09:23:22.816Z,102044.38
2023-01-25T09:26:25.550Z,102044.38
2023-01-25T09:29:28.253Z,102044.53
2023-01-25T09:32:31.269Z,102042.66
2023-01-25T09:35:34.332Z,102037.94
2023-01-25T09:38:37.319Z,102037.25
2023-01-25T09:42:14.873Z,102034.00
2023-01-25T09:45:42.518Z,102022.50
2023-01-25T09:49:07.761Z,102008.78
2023-01-25T09:52:26.526Z,102004.84
2023-01-25T09:55:30.878Z,102001.78
2023-01-25T09:58:38.681Z,102001.53
2023-01-25T10:01:56.135Z,102001.06
2023-01-25T10:05:07.891Z,101996.84
2023-01-25T10:08:36.507Z,101988.09
2023-01-25T10:11:39.440Z,101988.03
2023-01-25T10:14:42.060Z,101984.03
2023-01-25T10:17:45.108Z,101981.78
2023-01-25T10:20:55.982Z,101969.03
2023-01-25T10:24:36.421Z,101962.50
2023-01-25T10:28:05.314Z,101959.88
2023-01-25T10:31:28.342Z,101949.06
2023-01-25T10:34:47.017Z,101957.84
2023-01-25T10:38:03.199Z,101945.78
2023-01-25T10:41:13.949Z,101944.69
2023-01-25T10:44:24.043Z,101935.84
2023-01-25T10:47:34.338Z,101930.22
2023-01-25T10:50:43.163Z,101931.75
2023-01-25T10:54:02.927Z,101920.31
2023-01-25T10:57:13.049Z,101915.03
2023-01-25T11:00:38.766Z,101917.38
2023-01-25T11:03:46.625Z,101913.19
2023-01-25T11:06:51.623Z,101901.00
2023-01-25T11:09:54.307Z,101902.28
2023-01-25T11:13:17.424Z,101903.59
2023-01-25T11:16:50.536Z,101905.47
2023-01-25T11:20:18.852Z,101897.81
2023-01-25T11:23:24.812Z,101889.44
2023-01-25T11:26:28.556Z,101887.63
2023-01-25T11:29:31.226Z,101876.47
2023-01-25T11:32:34.063Z,101870.09
2023-01-25T11:35:41.120Z,101860.41
2023-01-25T11:39:03.723Z,101847.84
2023-01-25T11:42:34.016Z,101851.66
2023-01-25T11:45:42.538Z,101844.28
2023-01-25T11:49:10.852Z,101843.25
2023-01-25T11:52:41.251Z,101835.28
2023-01-25T11:55:58.826Z,101830.66
2023-01-25T11:59:09.658Z,101825.28
2023-01-25T12:02:24.249Z,101820.91
2023-01-25T12:05:43.742Z,101810.47
2023-01-25T12:08:46.167Z,101806.59
2023-01-25T12:11:52.412Z,101792.97
2023-01-25T12:15:08.452Z,101787.84
2023-01-25T12:18:20.242Z,101782.88
2023-01-25T12:21:47.606Z,101798.59
2023-01-25T12:25:20.530Z,101785.88
2023-01-25T12:28:50.592Z,101792.50
2023-01-25T12:32:14.291Z,101781.53
2023-01-25T12:35:38.583Z,101785.66
2023-01-25T12:38:53.738Z,101779.72
2023-01-25T12:42:15.737Z,101777.78
2023-01-25T12:45:24.787Z,101778.78
2023-01-25T12:48:31.805Z,101775.94
2023-01-25T12:51:40.117Z,101774.75
2023-01-25T12:54:46.184Z,101778.22
2023-01-25T12:58:23.815Z,101775.00
2023-01-25T13:01:55.489Z,101765.56
2023-01-25T13:05:25.303Z,101767.41
2023-01-25T13:08:35.300Z,101764.66
2023-01-25T13:11:41.058Z,101756.72
2023-01-25T13:14:44.224Z,101760.28
2023-01-25T13:17:46.786Z,101752.16
2023-01-25T13:20:53.221Z,101750.75
2023-01-25T13:24:24.878Z,101753.47
2023-01-25T13:27:29.699Z,101755.31
2023-01-25T13:30:36.147Z,101752.25
2023-01-25T13:33:38.864Z,101744.56
2023-01-25T13:36:41.495Z,101750.56
2023-01-25T13:40:09.670Z,101740.06
2023-01-25T13:43:13.298Z,101738.53
2023-01-25T13:46:19.285Z,101735.31
2023-01-25T13:49:26.219Z,101738.38
2023-01-25T13:52:31.303Z,101730.88
2023-01-25T13:55:43.095Z,101731.22
2023-01-25T13:58:48.153Z,101723.19
2023-01-25T14:01:51.465Z,101720.63
2023-01-25T14:04:54.695Z,101721.88
2023-01-25T14:07:57.372Z,101714.97
2023-01-25T14:11:01.004Z,101713.44
2023-01-25T14:14:16.241Z,101704.84
2023-01-25T14:17:22.748Z,101714.28
2023-01-25T14:20:25.782Z,101715.50
2023-01-25T14:23:30.628Z,101720.91
2023-01-25T14:26:39.249Z,101715.38
2023-01-25T14:29:49.135Z,101714.88
2023-01-25T14:32:57.996Z,101709.25
2023-01-25T14:36:24.192Z,101707.34
2023-01-25T14:39:29.468Z,101706.88
2023-01-25T14:42:32.811Z,101707.59
2023-01-25T14:45:35.295Z,101702.00
2023-01-25T14:48:41.209Z,101697.75
2023-01-25T14:51:45.567Z,101698.31
2023-01-25T14:54:52.315Z,101695.72
2023-01-25T14:58:00.742Z,101690.56
2023-01-25T15:01:05.058Z,101692.25
2023-01-25T15:04:13.025Z,101687.66
2023-01-25T15:07:33.066Z,101690.00
2023-01-25T15:10:38.553Z,101680.03
2023-01-25T15:13:41.173Z,101690.31
2023-01-25T15:16:43.828Z,101685.41
2023-01-25T15:19:52.574Z,101678.53
2023-01-25T15:22:56.953Z,101689.19
2023-01-25T15:26:01.564Z,101691.72
2023-01-25T15:29:16.224Z,101694.69
2023-01-25T15:32:21.185Z,101687.47
2023-01-25T15:35:23.935Z,101695.69
2023-01-25T15:38:26.942Z,101685.06
2023-01-25T15:41:29.792Z,101685.88
2023-01-25T15:44:32.485Z,101683.47
2023-01-25T15:47:36.633Z,101676.34
2023-01-25T15:50:42.677Z,101680.25
2023-01-25T15:53:45.457Z,101673.84
2023-01-25T15:56:52.492Z,101681.28
2023-01-25T15:59:56.191Z,101683.56
2023-01-25T16:02:59.137Z,101681.50
2023-01-25T16:06:20.396Z,101681.28
2023-01-25T16:09:26.946Z,101682.66
2023-01-25T16:12:32.431Z,101677.47
2023-01-25T16:15:37.034Z,101676.81
2023-01-25T16:18:40.335Z,101668.78
2023-01-25T16:21:43.551Z,101669.69
2023-01-25T16:24:46.228Z,101671.28
2023-01-25T16:27:50.250Z,101665.56
2023-01-25T16:30:53.524Z,101644.81
2023-01-25T16:33:56.289Z,101649.66
2023-01-25T16:37:00.504Z,101647.94
2023-01-25T16:40:03.925Z,101642.91
2023-01-25T16:43:07.242Z,101645.53
2023-01-25T16:46:28.326Z,101647.81
2023-01-25T16:49:32.074Z,101645.63
2023-01-25T16:52:35.126Z,101639.41
2023-01-25T16:55:37.974Z,101631.22
2023-01-25T16:58:40.690Z,101637.50
2023-01-25T17:01:43.892Z,101636.13
2023-01-25T17:04:46.574Z,101634.66
2023-01-25T17:07:50.784Z,101633.34
2023-01-25T17:10:57.573Z,101632.22
2023-01-25T17:14:00.837Z,101634.00
2023-01-25T17:17:05.517Z,101631.94
2023-01-25T17:20:09.172Z,101633.69
2023-01-25T17:23:17.035Z,101634.38
2023-01-25T17:26:27.831Z,101629.53
2023-01-25T17:29:31.118Z,101623.63
2023-01-25T17:32:33.933Z,101630.91
2023-01-25T17:35:36.828Z,101622.75
2023-01-25T17:38:40.656Z,101622.09
2023-01-25T17:41:44.624Z,101612.50
2023-01-25T17:44:47.641Z,101619.25
2023-01-25T17:47:50.332Z,101610.44
2023-01-25T17:51:04.256Z,101610.09
2023-01-25T17:54:07.473Z,101612.38
2023-01-25T17:57:10.598Z,101608.13
2023-01-25T18:00:14.672Z,101609.72
2023-01-25T18:03:20.273Z,101606.78
2023-01-25T18:06:26.188Z,101605.72
2023-01-25T18:09:31.520Z,101597.97
2023-01-25T18:12:34.809Z,101593.28
2023-01-25T18:15:37.719Z,101598.53
2023-01-25T18:18:42.989Z,101588.69
2023-01-25T18:21:45.765Z,101596.22
2023-01-25T18:24:49.041Z,101601.81
2023-01-25T18:27:51.794Z,101598.81
2023-01-25T18:31:02.552Z,101588.81
2023-01-25T18:34:06.681Z,101598.31
2023-01-25T18:37:18.407Z,101590.22
2023-01-25T18:40:21.666Z,101590.28
2023-01-25T18:43:25.184Z,101600.50
2023-01-25T18:46:28.358Z,101582.81
2023-01-25T18:49:31.504Z,101589.47
2023-01-25T18:52:35.709Z,101576.31
2023-01-25T18:55:38.709Z,101580.72
2023-01-25T18:58:42.497Z,101572.31
2023-01-25T19:01:45.876Z,101572.25
2023-01-25T19:04:50.329Z,101570.97
2023-01-25T19:07:53.684Z,101569.16
2023-01-25T19:11:03.991Z,101564.84
2023-01-25T19:14:07.203Z,101563.16
2023-01-25T19:17:11.740Z,101556.44
2023-01-25T19:20:14.808Z,101551.63
2023-01-25T19:23:17.842Z,101535.75
2023-01-25T19:26:22.586Z,101542.94
2023-01-25T19:29:25.437Z,101551.84
2023-01-25T19:32:28.670Z,101547.31
2023-01-25T19:35:31.400Z,101538.84
2023-01-25T19:38:39.106Z,101536.13
2023-01-25T19:41:42.296Z,101541.63
2023-01-25T19:44:45.621Z,101540.16
2023-01-25T19:47:48.496Z,101535.56
2023-01-25T19:50:55.023Z,101537.38
2023-01-25T19:54:05.084Z,101541.69
2023-01-25T19:57:08.451Z,101531.50
2023-01-25T20:00:12.245Z,101531.97
2023-01-25T20:03:17.005Z,101523.50
2023-01-25T20:06:20.988Z,101524.06
2023-01-25T20:09:28.344Z,101528.31
2023-01-25T20:12:31.380Z,101532.53
2023-01-25T20:15:35.717Z,101517.09
2023-01-25T20:18:41.761Z,101514.25
2023-01-25T20:21:45.318Z,101511.50
2023-01-25T20:24:48.401Z,101507.97
2023-01-25T20:27:51.965Z,101501.66
2023-01-25T20:30:58.441Z,101491.63
2023-01-25T20:34:07.628Z,101487.16
2023-01-25T20:37:10.535Z,101487.31
2023-01-25T20:40:14.674Z,101486.41
2023-01-25T20:43:18.472Z,101488.53
2023-01-25T20:46:22.241Z,101483.03
2023-01-25T20:49:25.995Z,101470.59
2023-01-25T20:52:29.540Z,101470.34
2023-01-25T20:55:32.280Z,101473.34
2023-01-25T20:58:35.653Z,101470.88
2023-01-25T21:01:38.278Z,101466.44
2023-01-25T21:04:41.338Z,101457.41
2023-01-25T21:07:44.198Z,101456.47
2023-01-25T21:10:58.635Z,101448.25
2023-01-25T21:14:01.266Z,101450.97
2023-01-25T21:17:04.757Z,101453.84
2023-01-25T21:20:08.445Z,101453.75
2023-01-25T21:23:13.612Z,101444.94
2023-01-25T21:26:20.319Z,101448.44
2023-01-25T21:29:23.549Z,101442.75
2023-01-25T21:32:26.174Z,101440.69
2023-01-25T21:35:29.843Z,101437.50
2023-01-25T21:38:32.763Z,101443.44
2023-01-25T21:41:35.778Z,101438.78
2023-01-25T21:44:57.338Z,101442.66
2023-01-25T21:48:00.346Z,101447.31
2023-01-25T21:51:22.341Z,101440.38
2023-01-25T21:54:27.828Z,101440.81
2023-01-25T21:57:30.464Z,101440.47
2023-01-25T22:00:37.670Z,101447.09
2023-01-25T22:03:40.381Z,101442.78
2023-01-25T22:06:43.167Z,101437.16
2023-01-25T22:09:45.798Z,101435.88
2023-01-25T22:12:50.838Z,101433.97
2023-01-25T22:15:57.863Z,101426.16
2023-01-25T22:19:00.750Z,101422.41
2023-01-25T22:22:03.940Z,101418.97
2023-01-25T22:25:07.157Z,101418.75
2023-01-25T22:28:14.316Z,101424.38
2023-01-25T22:31:22.275Z,101420.81
2023-01-25T22:34:25.005Z,101424.22
2023-01-25T22:37:28.064Z,101417.59
2023-01-25T22:40:31.582Z,101421.03
2023-01-25T22:43:35.563Z,101420.69
2023-01-25T22:46:38.201Z,101410.72
2023-01-25T22:49:41.081Z,101410.41
2023-01-25T22:52:43.850Z,101398.88
2023-01-25T22:55:46.634Z,101397.50
2023-01-25T22:58:49.820Z,101397.94
2023-01-25T23:01:53.231Z,101391.53
2023-01-25T23:04:55.701Z,101390.75
2023-01-25T23:07:59.636Z,101388.44
2023-01-25T23:11:04.630Z,101382.50
2023-01-25T23:14:30.206Z,101382.50
2023-01-25T23:17:52.357Z,101382.63
2023-01-25T23:20:56.472Z,101381.59
2023-01-25T23:24:01.015Z,101373.81
2023-01-25T23:27:03.749Z,101367.19
2023-01-25T23:30:07.334Z,101359.75
2023-01-25T23:33:10.880Z,101350.50
2023-01-25T23:36:18.649Z,101346.84
2023-01-25T23:39:23.178Z,101345.81
2023-01-25T23:42:25.775Z,101337.22
2023-01-25T23:45:28.596Z,101335.09
2023-01-25T23:48:31.388Z,101339.63
2023-01-25T23:51:34.537Z,101341.13
2023-01-25T23:54:37.393Z,101331.88
2023-01-25T23:57:40.169Z,101329.34
